createdAt,value
2017-10-19T00:04:27.487Z,33
2017-10-19T00:14:27.526Z,33
2017-10-19T00:24:27.461Z,32
2017-10-19T00:34:27.548Z,29
2017-10-19T00:44:27.615Z,30
2017-10-19T00:54:27.905Z,29
2017-10-19T01:04:27.560Z,26
2017-10-19T01:14:27.579Z,26
2017-10-19T01:24:27.535Z,26
2017-10-19T01:34:27.634Z,28
2017-10-19T01:44:28.083Z,28
2017-10-19T01:54:28.140Z,25
2017-10-19T02:04:28.144Z,25
2017-10-19T02:14:28.064Z,26
2017-10-19T02:24:28.196Z,21
2017-10-19T02:34:28.125Z,26
2017-10-19T02:44:28.185Z,23
2017-10-19T02:54:28.175Z,20
2017-10-19T03:04:28.491Z,25
2017-10-19T03:14:28.128Z,24
2017-10-19T03:24:28.246Z,20
2017-10-19T03:34:28.255Z,21
2017-10-19T03:44:28.246Z,23
2017-10-19T03:54:28.262Z,22
2017-10-19T04:04:28.234Z,23
2017-10-19T04:14:28.208Z,21
2017-10-19T04:24:28.284Z,22
2017-10-19T04:34:28.245Z,25
2017-10-19T04:44:28.261Z,26
2017-10-19T04:54:28.259Z,23
2017-10-19T05:04:28.211Z,31
2017-10-19T05:14:28.693Z,22
2017-10-19T05:24:28.368Z,21
2017-10-19T05:34:30.627Z,20
2017-10-19T05:44:28.256Z,21
2017-10-19T05:54:28.349Z,22
2017-10-19T06:04:28.303Z,23
2017-10-19T06:14:28.436Z,22
2017-10-19T06:24:28.366Z,22
2017-10-19T06:34:28.369Z,21
2017-10-19T06:44:28.335Z,21
2017-10-19T06:54:28.362Z,22
2017-10-19T07:04:28.338Z,23
2017-10-19T07:14:28.399Z,21
2017-10-19T07:24:28.506Z,22
2017-10-19T07:34:28.416Z,22
2017-10-19T07:44:28.446Z,22
2017-10-19T07:54:28.344Z,24
2017-10-19T08:04:28.379Z,26
2017-10-19T08:14:28.382Z,25
2017-10-19T08:24:28.376Z,27
2017-10-19T08:34:28.429Z,28
2017-10-19T08:44:28.449Z,25
2017-10-19T08:54:28.439Z,28
2017-10-19T09:04:28.423Z,25
2017-10-19T09:14:28.427Z,23
2017-10-19T09:24:28.469Z,23
2017-10-19T09:34:28.563Z,24
2017-10-19T09:44:28.469Z,23
2017-10-19T09:54:28.543Z,21
2017-10-19T10:04:28.476Z,21
2017-10-19T10:14:28.449Z,24
2017-10-19T10:24:28.536Z,23
2017-10-19T10:34:28.543Z,23
2017-10-19T10:44:28.503Z,19
2017-10-19T10:54:28.519Z,19
2017-10-19T11:04:28.532Z,17
2017-10-19T11:14:28.542Z,18
2017-10-19T11:24:28.678Z,18
2017-10-19T11:34:29.055Z,18
2017-10-19T11:44:28.605Z,17
2017-10-19T11:54:28.652Z,17
2017-10-19T12:04:28.708Z,17
2017-10-19T12:14:28.604Z,16
2017-10-19T12:24:28.610Z,16
2017-10-19T12:34:28.600Z,15
2017-10-19T12:44:28.633Z,16
2017-10-19T12:54:28.540Z,14
2017-10-19T13:04:28.655Z,14
2017-10-19T13:14:28.595Z,13
2017-10-19T13:24:28.590Z,14
2017-10-19T13:34:28.550Z,13
2017-10-19T13:44:28.585Z,13
2017-10-19T13:54:28.606Z,13
2017-10-19T14:04:28.592Z,12
2017-10-19T14:14:28.595Z,13
2017-10-19T14:24:28.613Z,14
2017-10-19T14:34:28.636Z,13
2017-10-19T14:44:28.576Z,13
2017-10-19T14:54:28.608Z,14
2017-10-19T15:04:28.662Z,12
2017-10-19T15:14:28.635Z,12
2017-10-19T15:24:28.627Z,12
2017-10-19T15:34:28.686Z,12
2017-10-19T15:44:28.598Z,12
2017-10-19T15:54:28.575Z,13
2017-10-19T16:04:28.655Z,13
2017-10-19T16:14:28.687Z,12
2017-10-19T16:24:28.706Z,14
2017-10-19T16:34:28.655Z,13
2017-10-19T16:44:28.720Z,14
2017-10-19T16:54:28.694Z,15
2017-10-19T17:04:28.607Z,16
2017-10-19T17:14:28.960Z,15
2017-10-19T17:24:31.740Z,15
2017-10-19T17:34:30.284Z,16
2017-10-19T17:44:29.893Z,16
2017-10-19T17:54:32.714Z,19
2017-10-19T18:04:30.410Z,20
2017-10-19T18:14:28.796Z,17
2017-10-19T18:24:31.422Z,17
2017-10-19T18:34:32.424Z,16
2017-10-19T18:44:33.390Z,17
2017-10-19T18:54:35.141Z,16
2017-10-19T19:04:41.394Z,15
2017-10-19T19:14:35.041Z,17
2017-10-19T19:24:35.327Z,15
2017-10-19T19:34:36.802Z,15
2017-10-19T19:44:35.770Z,16
2017-10-19T19:54:39.330Z,15
2017-10-19T20:04:35.167Z,13
2017-10-19T20:14:38.193Z,15
2017-10-19T20:24:34.866Z,14
2017-10-19T20:34:31.745Z,14
2017-10-19T20:44:29.819Z,15
2017-10-19T20:54:30.419Z,16
2017-10-19T21:04:28.974Z,16
2017-10-19T21:14:30.337Z,16
2017-10-19T21:24:28.997Z,16
2017-10-19T21:34:28.666Z,17
2017-10-19T21:44:28.709Z,19
2017-10-19T21:54:28.754Z,19
2017-10-19T22:05:05.245Z,19
2017-10-19T22:14:46.453Z,19
2017-10-19T22:24:28.707Z,19
2017-10-19T22:34:28.623Z,20
2017-10-19T22:44:28.670Z,18
2017-10-19T22:54:28.694Z,17
2017-10-19T23:04:28.738Z,18
2017-10-19T23:14:28.641Z,16
2017-10-19T23:24:28.648Z,17
2017-10-19T23:34:28.710Z,17
2017-10-19T23:44:28.635Z,20
2017-10-19T23:54:28.784Z,18
